CheckWX is a tool to help pilots better visualize weather data.  It is not intended as a substitute for an official pre-flight weather briefing.

16:54:08 UTC

EIKY TAF
Kerry Airport
Killarney, Ireland
TAF EIKY 181400Z 1815/1821 32007KT 9999 FEW025 SCT030

Jun-18@
15:00 UTC

Jun-18 @ 15:00 UTC

Jun-18@
21:00 UTC

Jun-18 @ 21:00 UTC

TAF EIKY 181400Z 1815/1821 32007KT 9999 FEW025 SCT030
Wind
  • 320° at 7 KTS
Cloud Levels
  • Few at 2,500' AGL
  • Scattered at 3,000' AGL